createdAt,value
2018-08-19T00:02:16.963Z,19.95
2018-08-19T00:04:58.818Z,19.99
2018-08-19T00:07:26.040Z,20.22
2018-08-19T00:09:53.237Z,20.34
2018-08-19T00:12:58.044Z,20.21
2018-08-19T00:15:25.169Z,19.98
2018-08-19T00:17:52.325Z,19.81
2018-08-19T00:20:19.476Z,19.39
2018-08-19T00:22:47.550Z,19.05
2018-08-19T00:25:26.242Z,19.27
2018-08-19T00:27:53.411Z,19.12
2018-08-19T00:30:20.592Z,18.95
2018-08-19T00:32:47.761Z,19.26
2018-08-19T00:35:21.768Z,19.54
2018-08-19T00:37:48.871Z,19.55
2018-08-19T00:40:16.044Z,19.45
2018-08-19T00:42:43.476Z,19.51
2018-08-19T00:45:10.647Z,19.70
2018-08-19T00:47:37.816Z,19.64
2018-08-19T00:50:04.972Z,19.46
2018-08-19T00:52:32.133Z,19.13
2018-08-19T00:54:59.228Z,19.11
2018-08-19T00:57:26.448Z,18.69
2018-08-19T00:59:53.572Z,18.43
2018-08-19T01:02:20.777Z,18.78
2018-08-19T01:04:49.550Z,19.03
2018-08-19T01:07:16.732Z,18.67
2018-08-19T01:09:43.915Z,18.67
2018-08-19T01:12:11.062Z,18.88
2018-08-19T01:14:38.235Z,19.01
2018-08-19T01:17:05.485Z,18.46
2018-08-19T01:19:32.634Z,18.37
2018-08-19T01:21:59.873Z,18.33
2018-08-19T01:24:27.113Z,18.74
2018-08-19T01:26:54.328Z,18.51
2018-08-19T01:29:35.130Z,18.33
2018-08-19T01:32:08.237Z,18.23
2018-08-19T01:34:35.396Z,18.26
2018-08-19T01:37:02.617Z,18.47
2018-08-19T01:39:29.916Z,18.54
2018-08-19T01:41:59.152Z,18.59
2018-08-19T01:44:26.280Z,18.63
2018-08-19T01:46:53.382Z,18.25
2018-08-19T01:49:20.493Z,17.97
2018-08-19T01:51:47.615Z,18.08
2018-08-19T01:54:18.946Z,17.92
2018-08-19T01:56:46.532Z,18.12
2018-08-19T01:59:13.737Z,18.30
2018-08-19T02:01:47.096Z,18.29
2018-08-19T02:04:14.364Z,18.55
2018-08-19T02:06:42.688Z,18.37
2018-08-19T02:09:11.540Z,17.90
2018-08-19T02:11:38.972Z,17.88
2018-08-19T02:14:06.282Z,17.90
2018-08-19T02:16:33.488Z,17.99
2018-08-19T02:19:00.595Z,18.04
2018-08-19T02:21:27.800Z,17.72
2018-08-19T02:23:55.119Z,17.64
2018-08-19T02:26:28.711Z,17.68
2018-08-19T02:28:55.920Z,17.82
2018-08-19T02:31:23.090Z,17.64
2018-08-19T02:33:50.237Z,17.75
2018-08-19T02:36:17.392Z,17.50
2018-08-19T02:38:44.545Z,17.24
2018-08-19T02:41:11.719Z,17.21
2018-08-19T02:43:43.892Z,17.26
2018-08-19T02:46:11.276Z,17.57
2018-08-19T02:48:45.036Z,17.57
2018-08-19T02:51:13.963Z,17.40
2018-08-19T02:53:42.296Z,17.57
2018-08-19T02:56:09.862Z,17.60
2018-08-19T02:58:36.977Z,17.42
2018-08-19T03:01:04.129Z,17.47
2018-08-19T03:03:31.602Z,17.25
2018-08-19T03:06:02.835Z,17.02
2018-08-19T03:08:30.788Z,16.63
2018-08-19T03:10:57.960Z,16.81
2018-08-19T03:13:25.244Z,16.92
2018-08-19T03:15:53.616Z,17.37
2018-08-19T03:18:20.793Z,17.44
2018-08-19T03:20:47.946Z,17.55
2018-08-19T03:23:15.104Z,17.12
2018-08-19T03:25:42.308Z,17.21
2018-08-19T03:28:09.552Z,17.08
2018-08-19T03:30:36.964Z,17.05
2018-08-19T03:33:04.177Z,17.01
2018-08-19T03:35:31.352Z,17.05
2018-08-19T03:38:04.200Z,16.70
2018-08-19T03:40:31.307Z,16.51
2018-08-19T03:42:58.456Z,16.31
2018-08-19T03:45:25.955Z,16.73
2018-08-19T03:47:53.131Z,16.97
2018-08-19T03:50:21.506Z,16.63
2018-08-19T03:52:49.192Z,16.63
2018-08-19T03:55:22.002Z,16.74
2018-08-19T03:57:49.355Z,16.94
2018-08-19T04:00:17.788Z,17.31
2018-08-19T04:02:45.009Z,17.32
2018-08-19T04:05:12.156Z,17.32
2018-08-19T04:07:39.362Z,17.47
2018-08-19T04:12:40.497Z,16.79
2018-08-19T04:15:08.525Z,16.49
2018-08-19T04:17:35.628Z,16.38
2018-08-19T04:20:03.195Z,16.17
2018-08-19T04:22:30.329Z,16.65
2018-08-19T04:24:57.476Z,16.58
2018-08-19T04:27:24.608Z,16.82
2018-08-19T04:29:51.772Z,16.22
2018-08-19T04:32:24.801Z,16.07
2018-08-19T04:34:52.196Z,16.24
2018-08-19T04:37:19.548Z,16.79
2018-08-19T04:39:46.673Z,16.86
2018-08-19T04:42:13.945Z,17.11
2018-08-19T04:44:41.066Z,17.26
2018-08-19T04:47:20.254Z,17.37
2018-08-19T04:49:48.207Z,17.54
2018-08-19T04:52:20.180Z,17.71
2018-08-19T04:54:47.340Z,17.61
2018-08-19T04:57:14.492Z,17.75
2018-08-19T04:59:41.677Z,17.53
2018-08-19T05:02:08.904Z,17.46
2018-08-19T05:04:36.085Z,17.43
2018-08-19T05:07:03.315Z,17.56
2018-08-19T05:09:30.566Z,17.73
2018-08-19T05:11:57.710Z,17.89
2018-08-19T05:14:24.889Z,17.99
2018-08-19T05:16:52.008Z,18.08
2018-08-19T05:19:19.181Z,17.97
2018-08-19T05:21:46.315Z,18.01
2018-08-19T05:24:13.455Z,18.04
2018-08-19T05:26:40.617Z,18.02
2018-08-19T05:29:09.263Z,18.07
2018-08-19T05:31:46.833Z,18.18
2018-08-19T05:34:19.564Z,18.30
2018-08-19T05:36:48.572Z,18.51
2018-08-19T05:39:15.924Z,18.54
2018-08-19T05:41:57.804Z,18.45
2018-08-19T05:44:24.939Z,18.54
2018-08-19T05:46:52.384Z,18.85
2018-08-19T05:49:19.761Z,18.93
2018-08-19T05:51:46.899Z,19.03
2018-08-19T05:54:14.045Z,18.98
2018-08-19T05:56:41.194Z,19.26
2018-08-19T05:59:08.320Z,19.41
2018-08-19T06:01:35.493Z,19.24
2018-08-19T06:04:02.661Z,19.30
2018-08-19T06:06:29.812Z,19.35
2018-08-19T06:08:56.989Z,19.59
2018-08-19T06:11:24.161Z,19.75
2018-08-19T06:13:51.277Z,19.82
2018-08-19T06:16:18.436Z,19.92
2018-08-19T06:18:45.591Z,20.02
2018-08-19T06:21:12.714Z,20.00
2018-08-19T06:23:39.873Z,20.18
2018-08-19T06:26:07.121Z,20.26
2018-08-19T06:28:34.269Z,20.40
2018-08-19T06:31:01.468Z,20.43
2018-08-19T06:33:28.548Z,20.58
2018-08-19T06:35:55.717Z,20.66
2018-08-19T06:38:22.853Z,20.64
2018-08-19T06:40:49.989Z,20.90
2018-08-19T06:43:17.174Z,21.09
2018-08-19T06:45:44.220Z,21.26
2018-08-19T06:48:11.427Z,21.53
2018-08-19T06:50:38.613Z,21.77
2018-08-19T06:53:05.814Z,21.62
2018-08-19T06:55:32.964Z,21.73
2018-08-19T06:58:00.273Z,22.06
2018-08-19T07:00:29.192Z,22.17
2018-08-19T07:03:01.493Z,22.15
2018-08-19T07:05:28.819Z,22.15
2018-08-19T07:07:56.060Z,22.10
2018-08-19T07:10:29.012Z,22.11
2018-08-19T07:13:02.641Z,22.55
2018-08-19T07:15:29.862Z,22.69
2018-08-19T07:17:57.127Z,23.00
2018-08-19T07:20:24.345Z,22.84
2018-08-19T07:22:51.524Z,22.83
2018-08-19T07:25:18.606Z,23.15
2018-08-19T07:27:45.757Z,23.27
2018-08-19T07:30:12.902Z,23.63
2018-08-19T07:32:40.165Z,23.95
2018-08-19T07:35:07.348Z,24.06
2018-08-19T07:37:34.500Z,24.16
2018-08-19T07:40:01.758Z,24.38
2018-08-19T07:42:28.906Z,24.61
2018-08-19T07:44:56.108Z,24.78
2018-08-19T07:47:23.237Z,24.86
2018-08-19T07:49:50.425Z,24.95
2018-08-19T07:52:17.553Z,24.79
2018-08-19T07:54:44.707Z,24.91
2018-08-19T07:57:21.213Z,25.16
2018-08-19T07:59:48.340Z,25.31
2018-08-19T08:02:15.544Z,25.31
2018-08-19T08:04:43.830Z,25.31
2018-08-19T08:07:13.069Z,25.51
2018-08-19T08:09:41.000Z,25.63
2018-08-19T08:12:08.662Z,25.75
2018-08-19T08:14:37.505Z,25.80
2018-08-19T08:17:06.581Z,25.41
2018-08-19T08:19:33.911Z,25.95
2018-08-19T08:22:07.544Z,25.92
2018-08-19T08:24:34.698Z,26.05
2018-08-19T08:27:01.901Z,26.15
2018-08-19T08:29:29.067Z,26.37
2018-08-19T08:31:57.265Z,26.60
2018-08-19T08:34:26.377Z,26.62
2018-08-19T08:37:02.676Z,26.77
2018-08-19T08:39:31.173Z,26.82
2018-08-19T08:41:58.872Z,26.66
2018-08-19T08:44:26.461Z,27.09
2018-08-19T08:46:53.647Z,27.15
2018-08-19T08:49:20.788Z,27.08
2018-08-19T08:51:47.972Z,26.72
2018-08-19T08:54:15.131Z,26.97
2018-08-19T08:56:42.339Z,26.53
2018-08-19T08:59:09.557Z,26.46
2018-08-19T09:01:36.733Z,26.94
2018-08-19T09:04:03.946Z,26.86
2018-08-19T09:06:31.215Z,26.80
2018-08-19T09:08:58.392Z,27.02
2018-08-19T09:11:25.597Z,27.50
2018-08-19T09:13:53.178Z,27.53
2018-08-19T09:16:20.645Z,27.60
2018-08-19T09:18:47.899Z,27.79
2018-08-19T09:21:15.348Z,27.72
2018-08-19T09:23:42.497Z,27.54
2018-08-19T09:26:09.631Z,27.47
2018-08-19T09:28:36.744Z,27.60
2018-08-19T09:31:03.908Z,28.12
2018-08-19T09:33:31.085Z,28.01
2018-08-19T09:35:58.240Z,27.70
2018-08-19T09:38:25.392Z,27.90
2018-08-19T09:40:52.676Z,27.98
2018-08-19T09:43:19.748Z,28.16
2018-08-19T09:45:47.228Z,28.44
2018-08-19T09:48:14.939Z,28.51
2018-08-19T09:50:42.818Z,28.42
2018-08-19T09:53:09.984Z,28.37
2018-08-19T09:55:40.422Z,28.04
2018-08-19T09:58:16.740Z,27.98
2018-08-19T10:00:49.687Z,27.62
2018-08-19T10:03:17.065Z,27.73
2018-08-19T10:05:44.264Z,28.16
2018-08-19T10:08:11.466Z,28.07
2018-08-19T10:10:38.624Z,28.08
2018-08-19T10:13:06.171Z,28.55
2018-08-19T10:15:34.004Z,28.89
2018-08-19T10:18:01.169Z,29.08
2018-08-19T10:20:28.299Z,28.54
2018-08-19T10:22:56.509Z,29.06
2018-08-19T10:25:23.655Z,29.29
2018-08-19T10:27:52.117Z,29.08
2018-08-19T10:30:19.940Z,28.92
2018-08-19T10:32:58.044Z,29.16
2018-08-19T10:35:26.936Z,29.19
2018-08-19T10:37:54.357Z,29.61
2018-08-19T10:40:21.533Z,30.06
2018-08-19T10:42:48.669Z,29.98
2018-08-19T10:45:20.408Z,30.05
2018-08-19T10:47:47.566Z,30.04
2018-08-19T10:50:14.721Z,30.15
2018-08-19T10:52:42.650Z,29.92
2018-08-19T10:55:10.836Z,29.80
2018-08-19T10:57:38.174Z,29.64
2018-08-19T11:00:10.649Z,29.37
2018-08-19T11:02:37.751Z,29.69
2018-08-19T11:05:04.928Z,30.41
2018-08-19T11:07:32.157Z,30.87
2018-08-19T11:10:16.625Z,30.96
2018-08-19T11:12:44.243Z,31.30
2018-08-19T11:15:27.800Z,31.32
2018-08-19T11:17:55.665Z,30.96
2018-08-19T11:20:28.604Z,31.38
2018-08-19T11:22:56.505Z,31.18
2018-08-19T11:25:26.427Z,30.93
2018-08-19T11:27:54.098Z,30.48
2018-08-19T11:30:23.268Z,30.20
2018-08-19T11:32:50.678Z,29.34
2018-08-19T11:35:17.861Z,29.43
2018-08-19T11:37:45.011Z,29.33
2018-08-19T11:40:12.121Z,29.13
2018-08-19T11:42:39.344Z,29.31
2018-08-19T11:45:06.484Z,30.61
2018-08-19T11:47:33.694Z,30.55
2018-08-19T11:50:00.868Z,30.01
2018-08-19T11:52:28.071Z,30.12
2018-08-19T11:54:55.298Z,30.51
2018-08-19T11:57:23.450Z,30.38
2018-08-19T11:59:51.240Z,29.81
2018-08-19T12:02:19.662Z,29.34
2018-08-19T12:04:47.156Z,29.58
2018-08-19T12:07:14.353Z,29.57
2018-08-19T12:09:42.468Z,29.98
2018-08-19T12:12:09.602Z,30.30
2018-08-19T12:14:36.944Z,30.59
2018-08-19T12:17:10.286Z,30.96
2018-08-19T12:19:39.503Z,31.86
2018-08-19T12:22:06.962Z,32.54
2018-08-19T12:24:37.523Z,32.63
2018-08-19T12:27:06.413Z,33.02
2018-08-19T12:29:34.787Z,32.24
2018-08-19T12:32:09.953Z,32.08
2018-08-19T12:34:39.674Z,32.10
2018-08-19T12:37:07.423Z,31.85
2018-08-19T12:39:34.625Z,31.53
2018-08-19T12:42:02.525Z,31.40
2018-08-19T12:44:29.767Z,31.60
2018-08-19T12:47:20.166Z,31.05
2018-08-19T12:49:51.081Z,31.98
2018-08-19T12:52:20.451Z,32.39
2018-08-19T12:54:53.488Z,32.62
2018-08-19T12:57:20.932Z,32.14
2018-08-19T12:59:48.095Z,32.67
2018-08-19T13:02:15.276Z,32.93
2018-08-19T13:04:42.417Z,32.99
2018-08-19T13:07:11.096Z,33.09
2018-08-19T13:09:38.342Z,33.31
2018-08-19T13:12:07.928Z,32.72
2018-08-19T13:14:35.088Z,32.11
2018-08-19T13:17:02.280Z,31.30
2018-08-19T13:19:29.897Z,31.93
2018-08-19T13:21:57.230Z,32.33
2018-08-19T13:24:30.425Z,32.66
2018-08-19T13:26:58.068Z,31.92
2018-08-19T13:29:25.197Z,32.08
2018-08-19T13:31:52.380Z,32.08
2018-08-19T13:34:19.521Z,32.05
2018-08-19T13:36:46.692Z,31.94
2018-08-19T13:39:13.873Z,32.24
2018-08-19T13:41:41.111Z,32.39
2018-08-19T13:44:08.333Z,31.90
2018-08-19T13:46:35.631Z,31.51
2018-08-19T13:49:02.806Z,31.00
2018-08-19T13:51:30.005Z,31.60
2018-08-19T13:53:57.392Z,31.63
2018-08-19T13:56:24.603Z,31.78
2018-08-19T13:58:51.775Z,31.94
2018-08-19T14:01:18.980Z,31.13
2018-08-19T14:03:46.166Z,31.50
2018-08-19T14:06:13.300Z,31.24
2018-08-19T14:08:40.496Z,31.07
2018-08-19T14:11:07.739Z,31.69
2018-08-19T14:13:35.043Z,32.34
2018-08-19T14:16:04.645Z,32.70
2018-08-19T14:18:31.910Z,33.27
2018-08-19T14:20:59.029Z,31.57
2018-08-19T14:23:26.255Z,31.85
2018-08-19T14:25:53.379Z,31.27
2018-08-19T14:28:20.528Z,32.03
2018-08-19T14:30:47.873Z,32.11
2018-08-19T14:33:14.990Z,32.38
2018-08-19T14:35:42.282Z,32.71
2018-08-19T14:38:09.441Z,33.22
2018-08-19T14:40:36.764Z,33.86
2018-08-19T14:43:04.085Z,32.93
2018-08-19T14:45:31.318Z,32.86
2018-08-19T14:47:58.470Z,32.79
2018-08-19T14:50:25.674Z,33.11
2018-08-19T14:52:52.894Z,33.43
2018-08-19T14:55:20.096Z,33.54
2018-08-19T14:57:47.268Z,31.77
2018-08-19T15:00:15.485Z,31.20
2018-08-19T15:02:42.688Z,30.61
2018-08-19T15:05:12.932Z,31.31
2018-08-19T15:07:40.133Z,31.84
2018-08-19T15:10:07.419Z,32.06
2018-08-19T15:12:34.492Z,32.11
2018-08-19T15:15:01.886Z,31.92
2018-08-19T15:17:29.178Z,32.16
2018-08-19T15:19:56.571Z,32.08
2018-08-19T15:22:23.677Z,31.95
2018-08-19T15:24:51.232Z,31.87
2018-08-19T15:27:18.517Z,32.93
2018-08-19T15:29:47.525Z,32.03
2018-08-19T15:32:14.876Z,32.05
2018-08-19T15:34:41.857Z,32.14
2018-08-19T15:37:09.032Z,32.78
2018-08-19T15:39:36.208Z,33.21
2018-08-19T15:42:03.428Z,33.06
2018-08-19T15:44:30.550Z,32.64
2018-08-19T15:46:57.807Z,32.16
2018-08-19T15:49:24.925Z,32.78
2018-08-19T15:51:52.352Z,33.38
2018-08-19T15:54:19.616Z,34.31
2018-08-19T15:56:46.881Z,34.38
2018-08-19T15:59:14.077Z,33.58
2018-08-19T16:01:41.245Z,33.70
2018-08-19T16:04:13.560Z,33.76
2018-08-19T16:06:41.973Z,33.82
2018-08-19T16:09:11.793Z,32.73
2018-08-19T16:11:38.958Z,34.71
2018-08-19T16:14:14.217Z,33.91
2018-08-19T16:16:41.365Z,33.02
2018-08-19T16:19:08.514Z,32.69
2018-08-19T16:21:35.699Z,32.55
2018-08-19T16:24:02.913Z,33.84
2018-08-19T16:26:30.382Z,34.61
2018-08-19T16:28:57.549Z,34.75
2018-08-19T16:31:24.741Z,33.98
2018-08-19T16:33:51.945Z,32.79
2018-08-19T16:36:19.112Z,32.75
2018-08-19T16:38:46.310Z,31.48
2018-08-19T16:41:13.510Z,31.29
2018-08-19T16:43:40.688Z,31.98
2018-08-19T16:46:07.882Z,31.74
2018-08-19T16:48:35.100Z,31.03
2018-08-19T16:51:02.373Z,30.53
2018-08-19T16:53:29.503Z,30.24
2018-08-19T16:55:56.728Z,30.54
2018-08-19T16:58:23.968Z,30.06
2018-08-19T17:00:51.155Z,30.57
2018-08-19T17:03:29.864Z,30.13
2018-08-19T17:05:57.024Z,30.06
2018-08-19T17:08:24.181Z,30.02
2018-08-19T17:10:51.369Z,29.89
2018-08-19T17:13:18.489Z,29.63
2018-08-19T17:15:45.670Z,29.42
2018-08-19T17:18:12.824Z,29.83
2018-08-19T17:20:40.200Z,29.68
2018-08-19T17:23:07.364Z,29.34
2018-08-19T17:25:34.552Z,29.44
2018-08-19T17:28:08.129Z,29.26
2018-08-19T17:30:35.331Z,29.13
2018-08-19T17:33:07.686Z,29.30
2018-08-19T17:35:34.884Z,29.35
2018-08-19T17:38:02.054Z,29.03
2018-08-19T17:40:29.901Z,28.92
2018-08-19T17:42:57.120Z,28.92
2018-08-19T17:45:24.436Z,28.97
2018-08-19T17:47:51.805Z,28.81
2018-08-19T17:50:24.373Z,28.85
2018-08-19T17:52:51.592Z,28.67
2018-08-19T17:55:18.866Z,28.57
2018-08-19T17:57:46.065Z,28.61
2018-08-19T18:00:13.275Z,28.66
2018-08-19T18:02:40.402Z,28.32
2018-08-19T18:05:07.865Z,28.26
2018-08-19T18:07:35.001Z,28.16
2018-08-19T18:10:03.763Z,28.05
2018-08-19T18:12:30.939Z,27.82
2018-08-19T18:14:58.299Z,27.79
2018-08-19T18:17:25.384Z,28.01
2018-08-19T18:19:52.614Z,27.73
2018-08-19T18:22:20.533Z,27.78
2018-08-19T18:24:53.415Z,27.55
2018-08-19T18:27:20.910Z,27.38
2018-08-19T18:29:48.407Z,27.17
2018-08-19T18:32:15.845Z,27.17
2018-08-19T18:34:43.460Z,27.03
2018-08-19T18:37:10.670Z,27.00
2018-08-19T18:39:38.734Z,26.82
2018-08-19T18:42:05.958Z,26.86
2018-08-19T18:44:33.162Z,26.75
2018-08-19T18:47:00.361Z,26.60
2018-08-19T18:49:27.571Z,26.53
2018-08-19T18:51:57.856Z,26.56
2018-08-19T18:54:29.250Z,26.67
2018-08-19T18:56:56.853Z,26.56
2018-08-19T18:59:24.054Z,26.57
2018-08-19T19:01:52.880Z,26.74
2018-08-19T19:04:20.108Z,26.98
2018-08-19T19:06:47.342Z,26.99
2018-08-19T19:09:14.625Z,26.96
2018-08-19T19:11:41.802Z,26.74
2018-08-19T19:14:16.517Z,26.67
2018-08-19T19:16:46.687Z,26.01
2018-08-19T19:19:13.874Z,25.44
2018-08-19T19:21:42.124Z,25.47
2018-08-19T19:24:09.626Z,25.52
2018-08-19T19:26:40.854Z,25.53
2018-08-19T19:29:14.125Z,25.26
2018-08-19T19:31:41.334Z,25.04
2018-08-19T19:34:13.831Z,25.00
2018-08-19T19:36:42.231Z,24.94
2018-08-19T19:39:09.647Z,24.99
2018-08-19T19:41:36.904Z,24.96
2018-08-19T19:44:20.204Z,24.81
2018-08-19T19:46:47.446Z,24.58
2018-08-19T19:49:14.677Z,24.56
2018-08-19T19:51:46.034Z,24.57
2018-08-19T19:54:13.254Z,24.59
2018-08-19T19:56:40.405Z,24.40
2018-08-19T19:59:07.630Z,24.31
2018-08-19T20:01:34.869Z,24.25
2018-08-19T20:04:03.054Z,24.12
2018-08-19T20:06:30.264Z,24.14
2018-08-19T20:08:59.091Z,24.23
2018-08-19T20:11:26.353Z,24.21
2018-08-19T20:13:58.009Z,24.21
2018-08-19T20:16:25.380Z,23.89
2018-08-19T20:18:52.896Z,23.35
2018-08-19T20:21:24.294Z,23.20
2018-08-19T20:23:52.761Z,22.83
2018-08-19T20:26:20.286Z,23.10
2018-08-19T20:28:49.141Z,22.87
2018-08-19T20:31:16.380Z,23.11
2018-08-19T20:33:44.290Z,23.13
2018-08-19T20:36:11.567Z,23.20
2018-08-19T20:38:38.804Z,23.29
2018-08-19T20:41:05.996Z,23.17
2018-08-19T20:43:33.218Z,23.22
2018-08-19T20:46:00.404Z,22.96
2018-08-19T20:48:27.597Z,23.09
2018-08-19T20:50:54.766Z,23.21
2018-08-19T20:53:21.942Z,23.18
2018-08-19T20:55:49.461Z,23.08
2018-08-19T20:58:16.642Z,22.94
2018-08-19T21:00:43.797Z,22.43
2018-08-19T21:03:11.244Z,22.56
2018-08-19T21:05:38.809Z,21.94
2018-08-19T21:08:09.249Z,21.94
2018-08-19T21:10:37.795Z,22.12
2018-08-19T21:13:05.221Z,22.03
2018-08-19T21:15:35.529Z,21.52
2018-08-19T21:18:02.759Z,21.70
2018-08-19T21:33:29.465Z,21.45
2018-08-19T21:35:56.634Z,21.14
2018-08-19T21:38:23.870Z,21.19
2018-08-19T21:40:52.934Z,21.02
2018-08-19T21:43:20.747Z,21.46
2018-08-19T21:45:49.560Z,21.22
2018-08-19T21:48:16.753Z,21.33
2018-08-19T21:50:43.934Z,21.23
2018-08-19T21:53:12.550Z,20.84
2018-08-19T21:55:41.850Z,20.62
2018-08-19T21:58:09.184Z,20.74
2018-08-19T22:00:37.702Z,20.35
2018-08-19T22:03:14.059Z,20.57
2018-08-19T22:05:41.233Z,20.40
2018-08-19T22:08:08.416Z,20.74
2018-08-19T22:10:35.590Z,20.76
2018-08-19T22:13:04.133Z,20.81
2018-08-19T22:15:35.601Z,20.60
2018-08-19T22:20:36.733Z,20.78
2018-08-19T22:23:04.220Z,20.26
2018-08-19T22:25:31.449Z,19.84
2018-08-19T22:27:58.615Z,20.16
2018-08-19T22:30:26.871Z,20.43
2018-08-19T22:32:54.015Z,20.39
2018-08-19T22:35:21.176Z,19.70
2018-08-19T22:37:48.627Z,19.71
2018-08-19T22:40:18.538Z,20.13
2018-08-19T22:42:45.653Z,20.03
2018-08-19T22:45:12.797Z,19.00
2018-08-19T22:47:39.912Z,19.48
2018-08-19T22:52:41.117Z,19.80
2018-08-19T22:55:08.239Z,19.75
2018-08-19T22:57:35.384Z,19.84
2018-08-19T23:00:04.016Z,20.07
2018-08-19T23:02:31.179Z,20.23
2018-08-19T23:05:05.083Z,19.39
2018-08-19T23:07:32.309Z,19.69
2018-08-19T23:09:59.517Z,19.50
2018-08-19T23:12:26.665Z,19.34
2018-08-19T23:15:05.431Z,19.22
2018-08-19T23:17:32.596Z,19.66
2018-08-19T23:19:59.740Z,18.98
2018-08-19T23:22:26.847Z,19.45
2018-08-19T23:24:53.964Z,19.77
2018-08-19T23:27:21.090Z,19.43
2018-08-19T23:29:48.208Z,19.52
2018-08-19T23:32:15.360Z,19.62
2018-08-19T23:34:42.481Z,19.13
2018-08-19T23:37:09.640Z,19.35
2018-08-19T23:39:36.789Z,19.03
2018-08-19T23:42:03.969Z,19.19
2018-08-19T23:44:31.137Z,18.84
2018-08-19T23:46:58.228Z,19.08
2018-08-19T23:49:25.396Z,18.64
2018-08-19T23:51:52.516Z,18.62
2018-08-19T23:54:19.665Z,18.78
2018-08-19T23:56:46.812Z,19.23
2018-08-19T23:59:15.375Z,19.41
